sensor_id;sensor_type;location;lat;lon;timestamp;P1;durP1;ratioP1;P2;durP2;ratioP2
77278;SDS011;66332;50.436;15.378;2023-03-14T00:00:04;10.05;;;5.00;;
77278;SDS011;66332;50.436;15.378;2023-03-14T00:05:11;10.20;;;5.15;;
77278;SDS011;66332;50.436;15.378;2023-03-14T00:09:51;8.40;;;4.45;;
77278;SDS011;66332;50.436;15.378;2023-03-14T00:14:32;9.63;;;4.97;;
77278;SDS011;66332;50.436;15.378;2023-03-14T00:23:54;13.18;;;5.40;;
77278;SDS011;66332;50.436;15.378;2023-03-14T00:28:35;11.75;;;5.70;;
77278;SDS011;66332;50.436;15.378;2023-03-14T00:33:17;10.68;;;5.68;;
77278;SDS011;66332;50.436;15.378;2023-03-14T00:37:58;11.38;;;5.88;;
77278;SDS011;66332;50.436;15.378;2023-03-14T00:42:38;11.68;;;6.40;;
77278;SDS011;66332;50.436;15.378;2023-03-14T00:47:19;11.77;;;6.32;;
77278;SDS011;66332;50.436;15.378;2023-03-14T00:52:00;10.55;;;5.80;;
77278;SDS011;66332;50.436;15.378;2023-03-14T00:56:41;14.07;;;6.30;;
77278;SDS011;66332;50.436;15.378;2023-03-14T01:01:22;12.02;;;6.03;;
77278;SDS011;66332;50.436;15.378;2023-03-14T01:10:52;12.40;;;6.03;;
77278;SDS011;66332;50.436;15.378;2023-03-14T01:15:33;12.15;;;6.28;;
77278;SDS011;66332;50.436;15.378;2023-03-14T01:20:15;12.32;;;6.35;;
77278;SDS011;66332;50.436;15.378;2023-03-14T01:24:57;13.20;;;6.30;;
77278;SDS011;66332;50.436;15.378;2023-03-14T01:29:38;11.85;;;5.57;;
77278;SDS011;66332;50.436;15.378;2023-03-14T01:34:19;12.70;;;5.95;;
77278;SDS011;66332;50.436;15.378;2023-03-14T01:38:59;13.80;;;5.45;;
77278;SDS011;66332;50.436;15.378;2023-03-14T01:43:40;17.08;;;6.38;;
77278;SDS011;66332;50.436;15.378;2023-03-14T01:48:21;13.68;;;5.65;;
77278;SDS011;66332;50.436;15.378;2023-03-14T01:53:02;11.98;;;6.18;;
77278;SDS011;66332;50.436;15.378;2023-03-14T01:58:04;14.07;;;6.38;;
77278;SDS011;66332;50.436;15.378;2023-03-14T02:02:46;11.18;;;5.90;;
77278;SDS011;66332;50.436;15.378;2023-03-14T02:07:39;11.20;;;5.65;;
77278;SDS011;66332;50.436;15.378;2023-03-14T02:12:27;11.93;;;5.70;;
77278;SDS011;66332;50.436;15.378;2023-03-14T02:17:08;11.57;;;6.57;;
77278;SDS011;66332;50.436;15.378;2023-03-14T02:21:51;12.88;;;7.13;;
77278;SDS011;66332;50.436;15.378;2023-03-14T02:26:38;11.80;;;5.72;;
77278;SDS011;66332;50.436;15.378;2023-03-14T02:31:23;12.77;;;5.28;;
77278;SDS011;66332;50.436;15.378;2023-03-14T02:36:05;13.25;;;5.38;;
77278;SDS011;66332;50.436;15.378;2023-03-14T02:40:49;13.05;;;5.72;;
77278;SDS011;66332;50.436;15.378;2023-03-14T02:45:36;10.57;;;4.70;;
77278;SDS011;66332;50.436;15.378;2023-03-14T02:50:21;12.88;;;5.80;;
77278;SDS011;66332;50.436;15.378;2023-03-14T02:55:05;11.10;;;5.72;;
77278;SDS011;66332;50.436;15.378;2023-03-14T02:59:46;11.73;;;5.75;;
77278;SDS011;66332;50.436;15.378;2023-03-14T03:04:27;11.65;;;6.00;;
77278;SDS011;66332;50.436;15.378;2023-03-14T03:09:08;11.57;;;6.20;;
77278;SDS011;66332;50.436;15.378;2023-03-14T03:13:49;13.05;;;6.20;;
77278;SDS011;66332;50.436;15.378;2023-03-14T03:18:30;11.45;;;5.88;;
77278;SDS011;66332;50.436;15.378;2023-03-14T03:23:11;12.20;;;6.40;;
77278;SDS011;66332;50.436;15.378;2023-03-14T03:27:53;13.63;;;6.55;;
77278;SDS011;66332;50.436;15.378;2023-03-14T03:32:34;12.90;;;6.13;;
77278;SDS011;66332;50.436;15.378;2023-03-14T03:37:15;12.00;;;6.47;;
77278;SDS011;66332;50.436;15.378;2023-03-14T03:41:56;11.75;;;6.35;;
77278;SDS011;66332;50.436;15.378;2023-03-14T03:46:36;12.57;;;7.05;;
77278;SDS011;66332;50.436;15.378;2023-03-14T03:51:17;14.95;;;7.00;;
77278;SDS011;66332;50.436;15.378;2023-03-14T03:55:58;14.32;;;6.85;;
77278;SDS011;66332;50.436;15.378;2023-03-14T04:00:40;12.30;;;6.38;;
77278;SDS011;66332;50.436;15.378;2023-03-14T04:05:21;12.77;;;6.78;;
77278;SDS011;66332;50.436;15.378;2023-03-14T04:10:02;12.80;;;6.50;;
77278;SDS011;66332;50.436;15.378;2023-03-14T04:14:43;13.93;;;6.38;;
77278;SDS011;66332;50.436;15.378;2023-03-14T04:19:24;12.32;;;6.18;;
77278;SDS011;66332;50.436;15.378;2023-03-14T04:24:04;10.95;;;6.25;;
77278;SDS011;66332;50.436;15.378;2023-03-14T04:28:45;13.10;;;6.40;;
77278;SDS011;66332;50.436;15.378;2023-03-14T04:33:26;12.18;;;6.82;;
77278;SDS011;66332;50.436;15.378;2023-03-14T04:38:07;13.00;;;6.15;;
77278;SDS011;66332;50.436;15.378;2023-03-14T04:42:48;12.02;;;5.65;;
77278;SDS011;66332;50.436;15.378;2023-03-14T04:47:29;12.45;;;6.43;;
77278;SDS011;66332;50.436;15.378;2023-03-14T04:52:10;14.50;;;6.43;;
77278;SDS011;66332;50.436;15.378;2023-03-14T04:56:51;12.85;;;6.28;;
77278;SDS011;66332;50.436;15.378;2023-03-14T05:01:32;12.60;;;6.05;;
77278;SDS011;66332;50.436;15.378;2023-03-14T05:06:12;13.75;;;6.70;;
77278;SDS011;66332;50.436;15.378;2023-03-14T05:10:54;12.23;;;6.38;;
77278;SDS011;66332;50.436;15.378;2023-03-14T05:15:36;10.32;;;5.93;;
77278;SDS011;66332;50.436;15.378;2023-03-14T05:20:16;12.05;;;6.55;;
77278;SDS011;66332;50.436;15.378;2023-03-14T05:24:57;11.10;;;6.10;;
77278;SDS011;66332;50.436;15.378;2023-03-14T05:39:01;10.68;;;6.35;;
77278;SDS011;66332;50.436;15.378;2023-03-14T05:43:42;12.30;;;6.13;;
77278;SDS011;66332;50.436;15.378;2023-03-14T05:48:22;12.32;;;6.80;;
77278;SDS011;66332;50.436;15.378;2023-03-14T05:53:03;12.63;;;6.47;;
77278;SDS011;66332;50.436;15.378;2023-03-14T05:57:45;14.80;;;6.20;;
77278;SDS011;66332;50.436;15.378;2023-03-14T06:02:25;11.43;;;6.40;;
77278;SDS011;66332;50.436;15.378;2023-03-14T06:07:06;11.98;;;6.45;;
77278;SDS011;66332;50.436;15.378;2023-03-14T06:11:47;11.73;;;6.47;;
77278;SDS011;66332;50.436;15.378;2023-03-14T06:16:28;12.38;;;6.50;;
77278;SDS011;66332;50.436;15.378;2023-03-14T06:21:09;13.35;;;6.45;;
77278;SDS011;66332;50.436;15.378;2023-03-14T06:25:50;14.18;;;6.40;;
77278;SDS011;66332;50.436;15.378;2023-03-14T06:30:31;11.98;;;6.78;;
77278;SDS011;66332;50.436;15.378;2023-03-14T06:35:11;11.98;;;6.63;;
77278;SDS011;66332;50.436;15.378;2023-03-14T06:39:52;12.93;;;6.80;;
77278;SDS011;66332;50.436;15.378;2023-03-14T06:44:36;12.30;;;6.38;;
77278;SDS011;66332;50.436;15.378;2023-03-14T06:49:40;11.50;;;6.10;;
77278;SDS011;66332;50.436;15.378;2023-03-14T06:54:42;14.15;;;6.45;;
77278;SDS011;66332;50.436;15.378;2023-03-14T06:59:50;14.45;;;6.70;;
77278;SDS011;66332;50.436;15.378;2023-03-14T07:04:31;10.82;;;5.97;;
77278;SDS011;66332;50.436;15.378;2023-03-14T07:09:12;13.73;;;6.47;;
77278;SDS011;66332;50.436;15.378;2023-03-14T07:13:53;13.73;;;6.95;;
77278;SDS011;66332;50.436;15.378;2023-03-14T07:18:34;13.52;;;6.72;;
77278;SDS011;66332;50.436;15.378;2023-03-14T07:23:15;12.73;;;6.38;;
77278;SDS011;66332;50.436;15.378;2023-03-14T07:27:56;12.10;;;5.80;;
77278;SDS011;66332;50.436;15.378;2023-03-14T07:32:37;12.50;;;7.30;;
77278;SDS011;66332;50.436;15.378;2023-03-14T07:37:18;13.88;;;7.63;;
77278;SDS011;66332;50.436;15.378;2023-03-14T07:41:59;13.88;;;7.30;;
77278;SDS011;66332;50.436;15.378;2023-03-14T07:46:40;12.95;;;6.93;;
77278;SDS011;66332;50.436;15.378;2023-03-14T07:51:21;12.55;;;6.97;;
77278;SDS011;66332;50.436;15.378;2023-03-14T07:56:01;12.70;;;6.93;;
77278;SDS011;66332;50.436;15.378;2023-03-14T08:00:42;12.05;;;6.70;;
77278;SDS011;66332;50.436;15.378;2023-03-14T08:05:24;11.98;;;5.97;;
77278;SDS011;66332;50.436;15.378;2023-03-14T08:10:05;15.02;;;6.65;;
77278;SDS011;66332;50.436;15.378;2023-03-14T08:14:47;13.07;;;6.50;;
77278;SDS011;66332;50.436;15.378;2023-03-14T08:19:27;12.93;;;7.07;;
77278;SDS011;66332;50.436;15.378;2023-03-14T08:24:08;12.23;;;7.18;;
77278;SDS011;66332;50.436;15.378;2023-03-14T08:33:30;12.00;;;6.60;;
77278;SDS011;66332;50.436;15.378;2023-03-14T08:38:11;14.32;;;7.22;;
77278;SDS011;66332;50.436;15.378;2023-03-14T08:42:52;16.20;;;7.97;;
77278;SDS011;66332;50.436;15.378;2023-03-14T08:47:33;16.30;;;7.75;;
77278;SDS011;66332;50.436;15.378;2023-03-14T08:52:14;14.20;;;8.25;;
77278;SDS011;66332;50.436;15.378;2023-03-14T08:56:56;14.90;;;7.45;;
77278;SDS011;66332;50.436;15.378;2023-03-14T09:01:38;14.38;;;7.57;;
77278;SDS011;66332;50.436;15.378;2023-03-14T09:06:18;13.75;;;7.13;;
77278;SDS011;66332;50.436;15.378;2023-03-14T09:10:59;11.88;;;6.70;;
77278;SDS011;66332;50.436;15.378;2023-03-14T09:15:40;12.88;;;7.28;;
77278;SDS011;66332;50.436;15.378;2023-03-14T09:20:22;12.73;;;7.20;;
77278;SDS011;66332;50.436;15.378;2023-03-14T09:25:04;14.55;;;7.63;;
77278;SDS011;66332;50.436;15.378;2023-03-14T09:29:48;16.73;;;8.10;;
77278;SDS011;66332;50.436;15.378;2023-03-14T09:34:29;12.50;;;7.43;;
77278;SDS011;66332;50.436;15.378;2023-03-14T09:39:13;13.95;;;7.80;;
77278;SDS011;66332;50.436;15.378;2023-03-14T09:44:02;17.20;;;9.65;;
77278;SDS011;66332;50.436;15.378;2023-03-14T09:48:46;14.13;;;7.43;;
77278;SDS011;66332;50.436;15.378;2023-03-14T09:53:33;12.40;;;7.25;;
77278;SDS011;66332;50.436;15.378;2023-03-14T09:58:21;11.75;;;6.35;;
77278;SDS011;66332;50.436;15.378;2023-03-14T10:07:53;9.38;;;4.78;;
77278;SDS011;66332;50.436;15.378;2023-03-14T10:12:35;9.48;;;4.03;;
77278;SDS011;66332;50.436;15.378;2023-03-14T10:17:19;8.43;;;4.40;;
77278;SDS011;66332;50.436;15.378;2023-03-14T10:22:01;8.77;;;4.60;;
77278;SDS011;66332;50.436;15.378;2023-03-14T10:26:49;8.63;;;3.50;;
77278;SDS011;66332;50.436;15.378;2023-03-14T10:36:43;7.43;;;1.95;;
77278;SDS011;66332;50.436;15.378;2023-03-14T10:46:12;5.45;;;2.25;;
77278;SDS011;66332;50.436;15.378;2023-03-14T10:51:07;4.03;;;1.20;;
77278;SDS011;66332;50.436;15.378;2023-03-14T10:55:50;5.18;;;1.27;;
77278;SDS011;66332;50.436;15.378;2023-03-14T11:20:24;5.57;;;1.73;;
77278;SDS011;66332;50.436;15.378;2023-03-14T11:30:19;6.40;;;1.70;;
77278;SDS011;66332;50.436;15.378;2023-03-14T11:35:17;8.10;;;1.48;;
77278;SDS011;66332;50.436;15.378;2023-03-14T11:50:03;4.65;;;1.30;;
77278;SDS011;66332;50.436;15.378;2023-03-14T12:09:34;5.78;;;1.70;;
77278;SDS011;66332;50.436;15.378;2023-03-14T12:14:26;6.57;;;1.65;;
77278;SDS011;66332;50.436;15.378;2023-03-14T12:19:14;6.00;;;1.50;;
77278;SDS011;66332;50.436;15.378;2023-03-14T12:24:14;5.72;;;2.00;;
77278;SDS011;66332;50.436;15.378;2023-03-14T12:29:25;6.53;;;1.80;;
77278;SDS011;66332;50.436;15.378;2023-03-14T12:38:53;5.93;;;1.95;;
77278;SDS011;66332;50.436;15.378;2023-03-14T12:43:41;7.38;;;2.60;;
77278;SDS011;66332;50.436;15.378;2023-03-14T12:48:23;7.05;;;2.15;;
77278;SDS011;66332;50.436;15.378;2023-03-14T13:03:13;6.75;;;2.47;;
77278;SDS011;66332;50.436;15.378;2023-03-14T13:17:41;7.53;;;1.70;;
77278;SDS011;66332;50.436;15.378;2023-03-14T13:22:30;7.07;;;1.73;;
77278;SDS011;66332;50.436;15.378;2023-03-14T13:27:16;5.53;;;1.45;;
77278;SDS011;66332;50.436;15.378;2023-03-14T13:32:10;3.40;;;1.30;;
77278;SDS011;66332;50.436;15.378;2023-03-14T13:36:57;3.50;;;1.10;;
77278;SDS011;66332;50.436;15.378;2023-03-14T13:41:39;3.78;;;1.30;;
77278;SDS011;66332;50.436;15.378;2023-03-14T13:46:21;3.63;;;1.30;;
77278;SDS011;66332;50.436;15.378;2023-03-14T13:51:09;4.63;;;1.38;;
77278;SDS011;66332;50.436;15.378;2023-03-14T13:55:52;4.72;;;1.40;;
77278;SDS011;66332;50.436;15.378;2023-03-14T14:00:34;5.20;;;1.40;;
77278;SDS011;66332;50.436;15.378;2023-03-14T14:09:55;6.10;;;1.80;;
77278;SDS011;66332;50.436;15.378;2023-03-14T14:14:39;4.88;;;1.27;;
77278;SDS011;66332;50.436;15.378;2023-03-14T14:19:44;5.65;;;1.60;;
77278;SDS011;66332;50.436;15.378;2023-03-14T14:24:28;5.53;;;1.77;;
77278;SDS011;66332;50.436;15.378;2023-03-14T14:29:16;5.60;;;1.27;;
77278;SDS011;66332;50.436;15.378;2023-03-14T14:34:17;4.75;;;1.27;;
77278;SDS011;66332;50.436;15.378;2023-03-14T14:39:04;5.38;;;1.50;;
77278;SDS011;66332;50.436;15.378;2023-03-14T14:43:51;3.67;;;1.30;;
77278;SDS011;66332;50.436;15.378;2023-03-14T14:48:35;5.82;;;1.73;;
77278;SDS011;66332;50.436;15.378;2023-03-14T14:58:43;4.68;;;1.40;;
77278;SDS011;66332;50.436;15.378;2023-03-14T15:03:25;4.05;;;1.10;;
77278;SDS011;66332;50.436;15.378;2023-03-14T15:08:09;5.30;;;1.20;;
77278;SDS011;66332;50.436;15.378;2023-03-14T15:12:50;5.28;;;1.20;;
77278;SDS011;66332;50.436;15.378;2023-03-14T15:17:32;4.07;;;1.10;;
77278;SDS011;66332;50.436;15.378;2023-03-14T15:22:13;4.93;;;1.33;;
77278;SDS011;66332;50.436;15.378;2023-03-14T15:27:03;3.85;;;1.13;;
77278;SDS011;66332;50.436;15.378;2023-03-14T15:31:46;4.80;;;1.70;;
77278;SDS011;66332;50.436;15.378;2023-03-14T15:36:31;4.13;;;1.20;;
77278;SDS011;66332;50.436;15.378;2023-03-14T15:41:27;4.85;;;1.23;;
77278;SDS011;66332;50.436;15.378;2023-03-14T15:46:09;4.90;;;1.20;;
77278;SDS011;66332;50.436;15.378;2023-03-14T15:50:51;4.05;;;1.10;;
77278;SDS011;66332;50.436;15.378;2023-03-14T15:55:33;5.85;;;1.83;;
77278;SDS011;66332;50.436;15.378;2023-03-14T16:00:16;4.93;;;1.45;;
77278;SDS011;66332;50.436;15.378;2023-03-14T16:05:00;4.75;;;1.30;;
77278;SDS011;66332;50.436;15.378;2023-03-14T16:09:44;4.93;;;1.23;;
77278;SDS011;66332;50.436;15.378;2023-03-14T16:14:26;3.58;;;1.30;;
77278;SDS011;66332;50.436;15.378;2023-03-14T16:19:13;3.92;;;1.30;;
77278;SDS011;66332;50.436;15.378;2023-03-14T16:23:56;6.82;;;2.40;;
77278;SDS011;66332;50.436;15.378;2023-03-14T16:28:42;5.85;;;1.77;;
77278;SDS011;66332;50.436;15.378;2023-03-14T16:33:45;7.32;;;1.80;;
77278;SDS011;66332;50.436;15.378;2023-03-14T16:38:26;6.18;;;2.03;;
77278;SDS011;66332;50.436;15.378;2023-03-14T16:43:08;6.35;;;1.88;;
77278;SDS011;66332;50.436;15.378;2023-03-14T16:47:49;6.65;;;2.13;;
77278;SDS011;66332;50.436;15.378;2023-03-14T16:52:40;8.85;;;2.50;;
77278;SDS011;66332;50.436;15.378;2023-03-14T17:02:03;6.32;;;2.30;;
77278;SDS011;66332;50.436;15.378;2023-03-14T17:06:45;7.30;;;2.40;;
77278;SDS011;66332;50.436;15.378;2023-03-14T17:11:26;6.63;;;2.45;;
77278;SDS011;66332;50.436;15.378;2023-03-14T17:16:08;7.43;;;2.85;;
77278;SDS011;66332;50.436;15.378;2023-03-14T17:20:50;6.78;;;2.75;;
77278;SDS011;66332;50.436;15.378;2023-03-14T17:25:32;7.28;;;3.38;;
77278;SDS011;66332;50.436;15.378;2023-03-14T17:30:14;7.13;;;3.00;;
77278;SDS011;66332;50.436;15.378;2023-03-14T17:34:58;7.95;;;2.90;;
77278;SDS011;66332;50.436;15.378;2023-03-14T17:39:39;6.95;;;2.88;;
77278;SDS011;66332;50.436;15.378;2023-03-14T17:44:20;7.60;;;2.65;;
77278;SDS011;66332;50.436;15.378;2023-03-14T17:49:08;6.68;;;2.63;;
77278;SDS011;66332;50.436;15.378;2023-03-14T17:53:49;5.95;;;2.65;;
77278;SDS011;66332;50.436;15.378;2023-03-14T17:58:30;6.75;;;2.78;;
77278;SDS011;66332;50.436;15.378;2023-03-14T18:03:14;7.00;;;2.50;;
77278;SDS011;66332;50.436;15.378;2023-03-14T18:07:57;5.85;;;2.00;;
77278;SDS011;66332;50.436;15.378;2023-03-14T18:12:37;5.85;;;2.00;;
77278;SDS011;66332;50.436;15.378;2023-03-14T18:17:22;6.05;;;2.30;;
77278;SDS011;66332;50.436;15.378;2023-03-14T18:22:07;5.57;;;2.40;;
77278;SDS011;66332;50.436;15.378;2023-03-14T18:26:49;5.22;;;1.77;;
77278;SDS011;66332;50.436;15.378;2023-03-14T18:31:31;5.13;;;2.00;;
77278;SDS011;66332;50.436;15.378;2023-03-14T18:36:14;5.85;;;2.15;;
77278;SDS011;66332;50.436;15.378;2023-03-14T18:40:55;5.10;;;1.90;;
77278;SDS011;66332;50.436;15.378;2023-03-14T18:45:42;5.50;;;1.85;;
77278;SDS011;66332;50.436;15.378;2023-03-14T18:50:23;3.08;;;1.20;;
77278;SDS011;66332;50.436;15.378;2023-03-14T18:55:04;2.22;;;0.85;;
77278;SDS011;66332;50.436;15.378;2023-03-14T18:59:45;1.63;;;0.80;;
77278;SDS011;66332;50.436;15.378;2023-03-14T19:04:27;4.13;;;1.20;;
77278;SDS011;66332;50.436;15.378;2023-03-14T19:09:20;3.00;;;0.90;;
77278;SDS011;66332;50.436;15.378;2023-03-14T19:14:01;3.33;;;1.10;;
77278;SDS011;66332;50.436;15.378;2023-03-14T19:18:43;3.03;;;1.10;;
77278;SDS011;66332;50.436;15.378;2023-03-14T19:23:24;2.90;;;1.10;;
77278;SDS011;66332;50.436;15.378;2023-03-14T19:28:08;2.28;;;0.95;;
77278;SDS011;66332;50.436;15.378;2023-03-14T19:32:59;1.60;;;0.70;;
77278;SDS011;66332;50.436;15.378;2023-03-14T19:37:40;3.92;;;1.20;;
77278;SDS011;66332;50.436;15.378;2023-03-14T19:42:21;1.27;;;0.75;;
77278;SDS011;66332;50.436;15.378;2023-03-14T19:47:03;1.98;;;0.95;;
77278;SDS011;66332;50.436;15.378;2023-03-14T19:51:45;2.90;;;1.00;;
77278;SDS011;66332;50.436;15.378;2023-03-14T19:56:26;2.78;;;1.10;;
77278;SDS011;66332;50.436;15.378;2023-03-14T20:01:11;1.60;;;0.77;;
77278;SDS011;66332;50.436;15.378;2023-03-14T20:05:56;3.25;;;1.13;;
77278;SDS011;66332;50.436;15.378;2023-03-14T20:10:42;1.40;;;0.77;;
77278;SDS011;66332;50.436;15.378;2023-03-14T20:15:27;1.98;;;0.85;;
77278;SDS011;66332;50.436;15.378;2023-03-14T20:20:09;1.60;;;0.90;;
77278;SDS011;66332;50.436;15.378;2023-03-14T20:24:50;2.63;;;1.20;;
77278;SDS011;66332;50.436;15.378;2023-03-14T20:34:13;2.08;;;1.00;;
77278;SDS011;66332;50.436;15.378;2023-03-14T20:38:54;3.03;;;1.13;;
77278;SDS011;66332;50.436;15.378;2023-03-14T20:43:35;2.33;;;0.95;;
77278;SDS011;66332;50.436;15.378;2023-03-14T20:48:20;4.55;;;1.45;;
77278;SDS011;66332;50.436;15.378;2023-03-14T20:53:14;3.63;;;1.40;;
77278;SDS011;66332;50.436;15.378;2023-03-14T20:57:55;4.72;;;1.30;;
77278;SDS011;66332;50.436;15.378;2023-03-14T21:02:39;4.88;;;1.77;;
77278;SDS011;66332;50.436;15.378;2023-03-14T21:07:53;4.60;;;1.80;;
77278;SDS011;66332;50.436;15.378;2023-03-14T21:12:36;4.32;;;1.88;;
77278;SDS011;66332;50.436;15.378;2023-03-14T21:17:17;4.57;;;1.30;;
77278;SDS011;66332;50.436;15.378;2023-03-14T21:21:59;6.55;;;1.55;;
77278;SDS011;66332;50.436;15.378;2023-03-14T21:26:42;71.43;;;28.38;;
77278;SDS011;66332;50.436;15.378;2023-03-14T21:31:25;6.13;;;1.48;;
77278;SDS011;66332;50.436;15.378;2023-03-14T21:36:14;5.47;;;1.60;;
77278;SDS011;66332;50.436;15.378;2023-03-14T21:40:58;7.70;;;1.50;;
77278;SDS011;66332;50.436;15.378;2023-03-14T21:45:47;6.55;;;2.10;;
77278;SDS011;66332;50.436;15.378;2023-03-14T21:50:52;6.20;;;1.85;;
77278;SDS011;66332;50.436;15.378;2023-03-14T21:55:45;5.45;;;2.13;;
77278;SDS011;66332;50.436;15.378;2023-03-14T22:00:26;10.80;;;2.08;;
77278;SDS011;66332;50.436;15.378;2023-03-14T22:05:17;4.70;;;1.70;;
77278;SDS011;66332;50.436;15.378;2023-03-14T22:10:00;8.05;;;1.80;;
77278;SDS011;66332;50.436;15.378;2023-03-14T22:19:29;5.10;;;1.65;;
77278;SDS011;66332;50.436;15.378;2023-03-14T22:24:30;5.53;;;1.45;;
77278;SDS011;66332;50.436;15.378;2023-03-14T22:29:21;7.47;;;1.77;;
77278;SDS011;66332;50.436;15.378;2023-03-14T22:34:08;6.45;;;1.75;;
77278;SDS011;66332;50.436;15.378;2023-03-14T22:38:55;5.40;;;1.60;;
77278;SDS011;66332;50.436;15.378;2023-03-14T22:43:38;5.78;;;1.33;;
77278;SDS011;66332;50.436;15.378;2023-03-14T22:48:20;7.05;;;1.92;;
77278;SDS011;66332;50.436;15.378;2023-03-14T22:53:02;6.53;;;1.70;;
